Time;durP1;ratioP1;P1;durP2;ratioP2;P2;SDS_P1;SDS_P2;PMS_P1;PMS_P2;Temp;Humidity;BMP_temperature;BMP_pressure;BME280_temperature;BME280_humidity;BME280_pressure;Samples;Min_cycle;Max_cycle;Signal;HPM_P1;HPM_P2
2023/10/23 00:00:39;;;;;;;;;16.00;15.00;;;;;14.55;100.00;100940.03;4973205;28;45305;-76
2023/10/23 00:03:05;;;;;;;;;21.25;14.75;;;;;14.53;100.00;100939.13;4973110;28;55491;-76
2023/10/23 00:05:30;;;;;;;;;18.33;12.67;;;;;14.54;100.00;100942.66;4972770;28;51587;-75
2023/10/23 00:07:56;;;;;;;;;13.00;11.75;;;;;14.55;100.00;100937.38;4973311;28;45389;-76
2023/10/23 00:10:21;;;;;;;;;12.00;12.00;;;;;14.52;100.00;100932.06;4973549;28;45424;-75
2023/10/23 00:12:47;;;;;;;;;17.00;13.33;;;;;14.53;100.00;100927.63;4973438;28;45298;-76
2023/10/23 00:15:13;;;;;;;;;18.00;13.50;;;;;14.52;100.00;100926.75;4973027;28;45480;-75
2023/10/23 00:17:38;;;;;;;;;20.00;11.33;;;;;14.53;100.00;100923.19;4972979;28;49882;-75
2023/10/23 00:20:04;;;;;;;;;17.33;13.67;;;;;14.51;100.00;100926.75;4976332;28;45442;-76
2023/10/23 00:22:29;;;;;;;;;19.00;13.00;;;;;14.53;100.00;100924.97;4976353;28;45603;-76
2023/10/23 00:24:55;;;;;;;;;16.50;13.25;;;;;14.50;100.00;100928.53;4975959;28;46599;-74
2023/10/23 00:27:20;;;;;;;;;18.75;13.75;;;;;14.48;100.00;100924.09;4975875;28;55974;-74
2023/10/23 00:29:45;;;;;;;;;22.25;15.75;;;;;14.48;100.00;100917.00;4975820;28;45403;-77
2023/10/23 00:32:11;;;;;;;;;16.25;14.25;;;;;14.48;100.00;100918.78;4976387;28;45417;-76
2023/10/23 00:34:36;;;;;;;;;18.25;18.25;;;;;14.44;100.00;100925.88;4975826;28;45747;-73
2023/10/23 00:37:02;;;;;;;;;26.00;16.75;;;;;14.45;100.00;100916.13;4976166;28;48760;-75
2023/10/23 00:39:27;;;;;;;;;23.75;20.75;;;;;14.48;100.00;100910.81;4975756;28;45299;-75
2023/10/23 00:41:52;;;;;;;;;18.75;16.25;;;;;14.45;100.00;100906.38;4976541;28;45398;-75
2023/10/23 00:44:18;;;;;;;;;25.00;16.25;;;;;14.46;100.00;100912.56;5051621;28;48682;-75
2023/10/23 00:46:43;;;;;;;;;19.25;17.75;;;;;14.43;100.00;100908.13;4994888;28;45410;-77
2023/10/23 00:49:09;;;;;;;;;24.75;20.25;;;;;14.46;100.00;100907.25;4976098;28;45282;-74
2023/10/23 00:51:35;;;;;;;;;21.00;18.00;;;;;14.44;100.00;100891.34;4976168;28;45443;-74
2023/10/23 00:54:02;;;;;;;;;18.50;17.00;;;;;14.42;100.00;100893.97;5042798;28;60917;-75
2023/10/23 00:56:27;;;;;;;;;26.50;24.75;;;;;14.41;100.00;100907.28;4975764;28;45369;-77
2023/10/23 00:58:53;;;;;;;;;31.00;21.75;;;;;14.37;100.00;100898.41;4975470;28;45273;-73
2023/10/23 01:01:18;;;;;;;;;26.00;22.25;;;;;14.36;100.00;100893.13;4975479;28;53877;-74
2023/10/23 01:03:44;;;;;;;;;25.00;22.75;;;;;14.35;100.00;100907.28;4974998;28;63397;-76
2023/10/23 01:06:09;;;;;;;;;25.00;20.50;;;;;14.34;100.00;100905.53;4975576;28;45301;-75
2023/10/23 01:08:35;;;;;;;;;21.50;19.00;;;;;14.32;100.00;100901.97;4975696;28;45493;-75
2023/10/23 01:11:00;;;;;;;;;25.25;20.00;;;;;14.36;100.00;100898.44;4975821;28;45679;-76
2023/10/23 01:13:27;;;;;;;;;23.25;20.50;;;;;14.34;100.00;100908.19;4975479;28;46273;-75
2023/10/23 01:15:52;;;;;;;;;24.25;20.00;;;;;14.35;100.00;100917.91;4975391;28;45287;-75
2023/10/23 01:18:18;;;;;;;;;23.75;20.50;;;;;14.32;100.00;100904.63;4975370;28;45572;-74
2023/10/23 01:20:44;;;;;;;;;21.25;21.00;;;;;14.30;100.00;100898.47;4975481;28;45555;-75
2023/10/23 01:23:10;;;;;;;;;28.25;18.00;;;;;14.25;100.00;100893.16;4975206;28;47836;-76
2023/10/23 01:25:36;;;;;;;;;19.25;17.50;;;;;14.26;100.00;100900.22;4975289;28;45368;-74
2023/10/23 01:28:02;;;;;;;;;23.25;20.75;;;;;14.24;100.00;100880.78;4975493;28;45449;-75
2023/10/23 01:30:28;;;;;;;;;17.75;17.25;;;;;14.20;100.00;100886.09;4974293;28;45510;-76
2023/10/23 01:32:53;;;;;;;;;18.75;15.25;;;;;14.20;100.00;100880.78;4974583;28;47416;-77
2023/10/23 01:35:19;;;;;;;;;23.50;16.75;;;;;14.17;100.00;100879.03;4975481;28;45211;-78
2023/10/23 01:37:45;;;;;;;;;17.00;12.50;;;;;14.16;100.00;100870.16;4974985;28;45888;-77
2023/10/23 01:40:11;;;;;;;;;14.00;14.00;;;;;14.18;100.00;100878.13;4975225;28;45490;-75
2023/10/23 01:42:36;;;;;;;;;6.50;6.25;;;;;14.18;100.00;100872.81;4975200;28;46602;-75
2023/10/23 01:45:03;;;;;;;;;25.25;18.00;;;;;14.13;100.00;100867.53;5003530;28;45483;-76
2023/10/23 01:47:28;;;;;;;;;18.50;15.50;;;;;14.16;100.00;100866.63;4975529;28;45353;-74
2023/10/23 01:49:54;;;;;;;;;22.25;19.00;;;;;14.13;100.00;100867.53;4975019;28;46431;-77
2023/10/23 01:52:19;;;;;;;;;19.25;16.25;;;;;14.14;100.00;100866.63;4974899;28;45603;-74
2023/10/23 01:54:45;;;;;;;;;14.25;12.50;;;;;14.13;100.00;100864.00;4975213;28;45306;-75
2023/10/23 01:57:13;;;;;;;;;20.50;14.25;;;;;14.11;100.00;100855.13;4975179;28;45326;-75
2023/10/23 01:59:39;;;;;;;;;12.75;11.25;;;;;14.11;100.00;100856.03;4975183;28;45482;-75
2023/10/23 02:02:04;;;;;;;;;13.50;11.50;;;;;14.08;100.00;100837.44;4974656;28;46031;-75
2023/10/23 02:04:30;;;;;;;;;18.00;10.00;;;;;14.07;100.00;100835.69;4974873;28;45231;-75
2023/10/23 02:06:56;;;;;;;;;16.50;13.50;;;;;14.07;100.00;100838.34;4975320;28;45471;-75
2023/10/23 02:09:22;;;;;;;;;18.75;16.00;;;;;14.09;100.00;100833.91;4975074;28;45314;-75
2023/10/23 02:11:47;;;;;;;;;12.33;11.33;;;;;14.06;100.00;100844.53;4974841;28;45402;-75
2023/10/23 02:14:12;;;;;;;;;16.33;12.33;;;;;14.08;100.00;100849.84;4974795;28;45331;-75
2023/10/23 02:16:38;;;;;;;;;12.67;11.00;;;;;14.09;100.00;100836.56;4974877;28;45504;-76
2023/10/23 02:19:03;;;;;;;;;11.67;10.67;;;;;14.08;100.00;100852.50;5097094;22;46682;-74
2023/10/23 02:21:29;;;;;;;;;17.00;11.33;;;;;14.09;100.00;100855.13;5009642;28;46465;-73
2023/10/23 02:23:54;;;;;;;;;10.00;8.33;;;;;14.09;100.00;100848.94;5041148;28;45218;-74
2023/10/23 02:26:19;;;;;;;;;10.33;8.00;;;;;14.05;100.00;100848.06;4986397;28;45365;-74
2023/10/23 02:28:45;;;;;;;;;9.00;9.00;;;;;14.06;100.00;100847.19;5010435;28;45529;-75
2023/10/23 02:31:10;;;;;;;;;12.67;11.00;;;;;14.05;100.00;100841.88;4973977;28;60855;-75
2023/10/23 02:33:36;;;;;;;;;11.33;9.00;;;;;14.00;100.00;100833.91;4974388;28;46816;-76
2023/10/23 02:36:01;;;;;;;;;11.67;9.00;;;;;13.98;100.00;100825.09;4972881;28;45382;-74
2023/10/23 02:38:27;;;;;;;;;11.00;11.00;;;;;13.91;100.00;100826.00;4974882;28;45366;-74
2023/10/23 02:40:53;;;;;;;;;8.33;8.33;;;;;13.85;100.00;100818.94;4973793;28;46384;-75
2023/10/23 02:43:19;;;;;;;;;15.33;6.67;;;;;13.85;100.00;100818.06;4974325;28;45373;-74
2023/10/23 02:45:45;;;;;;;;;8.00;8.00;;;;;13.80;100.00;100804.81;4974434;28;45314;-76
2023/10/23 02:48:10;;;;;;;;;12.33;9.00;;;;;13.77;100.00;100810.09;5041981;28;45274;-76
2023/10/23 02:50:36;;;;;;;;;10.00;6.67;;;;;13.77;100.00;100814.53;4974338;28;46320;-74
2023/10/23 02:53:01;;;;;;;;;10.33;9.00;;;;;13.76;100.00;100818.06;4974689;28;45318;-75
2023/10/23 02:55:27;;;;;;;;;13.00;8.00;;;;;13.72;100.00;100821.63;4974078;28;53243;-74
2023/10/23 02:57:52;;;;;;;;;10.00;7.00;;;;;13.73;100.00;100811.00;4974191;28;45441;-74
2023/10/23 03:00:20;;;;;;;;;9.00;8.00;;;;;13.71;100.00;100811.91;4976881;28;46650;-75
2023/10/23 03:02:45;;;;;;;;;9.00;5.67;;;;;13.72;100.00;100816.31;4978360;28;45441;-75
2023/10/23 03:05:11;;;;;;;;;11.00;9.00;;;;;13.74;100.00;100817.19;4974412;28;45577;-76
2023/10/23 03:07:36;;;;;;;;;9.33;6.67;;;;;13.74;100.00;100818.09;4974350;28;45419;-74
2023/10/23 03:10:02;;;;;;;;;12.00;9.00;;;;;13.74;100.00;100817.19;5040828;28;45484;-74
2023/10/23 03:12:27;;;;;;;;;8.33;6.00;;;;;13.73;100.00;100811.00;4974338;28;45452;-75
2023/10/23 03:14:54;;;;;;;;;11.00;8.33;;;;;13.70;100.00;100808.34;4973660;28;54937;-76
2023/10/23 03:17:19;;;;;;;;;8.00;8.00;;;;;13.70;100.00;100816.31;4974437;28;45291;-74
2023/10/23 03:19:45;;;;;;;;;8.67;6.00;;;;;13.69;100.00;100809.25;4972955;28;61444;-75
2023/10/23 03:22:10;;;;;;;;;6.33;6.33;;;;;13.73;100.00;100807.44;4973918;28;45160;-74
2023/10/23 03:24:36;;;;;;;;;9.00;9.00;;;;;13.68;100.00;100799.50;4973736;28;45494;-75
2023/10/23 03:27:01;;;;;;;;;7.33;7.33;;;;;13.73;100.00;100802.16;4973642;28;55351;-74
2023/10/23 03:29:26;;;;;;;;;10.67;5.67;;;;;13.70;100.00;100794.22;4973784;28;45472;-74
2023/10/23 03:31:52;;;;;;;;;10.00;8.00;;;;;13.68;100.00;100798.63;4973421;28;57305;-75
2023/10/23 03:34:17;;;;;;;;;9.00;5.33;;;;;13.67;100.00;100788.91;4973649;28;45284;-73
2023/10/23 03:36:44;;;;;;;;;10.67;7.67;;;;;13.69;100.00;100788.03;5041843;28;45254;-74
2023/10/23 03:39:09;;;;;;;;;10.00;8.00;;;;;13.66;100.00;100784.47;4975272;28;46399;-75
2023/10/23 03:41:35;;;;;;;;;8.00;5.00;;;;;13.60;100.00;100778.31;4973014;28;61322;-75
2023/10/23 03:44:02;;;;;;;;;9.67;8.00;;;;;13.61;100.00;100788.03;5040765;28;45487;-74
2023/10/23 03:46:27;;;;;;;;;12.00;8.00;;;;;13.63;100.00;100785.34;5057828;28;45574;-76
2023/10/23 03:48:54;;;;;;;;;5.33;4.00;;;;;13.63;100.00;100782.72;4973145;28;45539;-75
2023/10/23 03:51:20;;;;;;;;;10.33;5.00;;;;;13.61;100.00;100774.75;4973661;28;45723;-74
2023/10/23 03:53:45;;;;;;;;;12.00;5.00;;;;;13.58;100.00;100772.13;4975636;28;45384;-75
2023/10/23 03:56:11;;;;;;;;;6.00;4.00;;;;;13.58;100.00;100777.44;5044047;28;45351;-74
2023/10/23 03:58:36;;;;;;;;;5.00;4.00;;;;;13.56;100.00;100770.34;4976490;28;46458;-74
2023/10/23 04:01:02;;;;;;;;;10.00;5.67;;;;;13.56;100.00;100768.59;4979680;28;47623;-74
2023/10/23 04:03:28;;;;;;;;;8.00;5.00;;;;;13.53;100.00;100765.03;4976825;28;45307;-74
2023/10/23 04:05:53;;;;;;;;;8.00;5.67;;;;;13.53;100.00;100749.13;4976468;28;45203;-73
2023/10/23 04:08:19;;;;;;;;;4.67;4.67;;;;;13.55;100.00;100750.91;4976468;28;45717;-74
2023/10/23 04:10:48;;;;;;;;;10.00;5.67;;;;;13.55;100.00;100750.03;4976334;28;45202;-76
2023/10/23 04:13:14;;;;;;;;;6.33;4.00;;;;;13.54;100.00;100750.91;4976172;28;45465;-76
2023/10/23 04:15:40;;;;;;;;;7.33;5.00;;;;;13.53;100.00;100746.47;4976273;28;45742;-74
2023/10/23 04:18:05;;;;;;;;;5.00;4.00;;;;;13.51;100.00;100743.84;4975998;28;45628;-75
2023/10/23 04:20:31;;;;;;;;;10.00;6.33;;;;;13.52;100.00;100744.72;4975786;28;59586;-74
2023/10/23 04:22:56;;;;;;;;;8.00;5.67;;;;;13.54;100.00;100745.59;4975913;28;46435;-74
2023/10/23 04:25:21;;;;;;;;;5.00;5.00;;;;;13.54;100.00;100738.53;4976305;28;45489;-75
2023/10/23 04:27:47;;;;;;;;;8.33;5.33;;;;;13.55;100.00;100742.94;4975445;28;60522;-76
2023/10/23 04:30:12;;;;;;;;;5.33;5.00;;;;;13.57;100.00;100737.63;4976365;28;45299;-74
2023/10/23 04:32:38;;;;;;;;;4.67;4.67;;;;;13.55;100.00;100740.28;4976106;28;45310;-76
2023/10/23 04:35:03;;;;;;;;;5.67;5.67;;;;;13.57;100.00;100734.97;4976337;28;45257;-75
2023/10/23 04:37:29;;;;;;;;;3.00;3.00;;;;;13.57;100.00;100743.81;4975947;28;46607;-74
2023/10/23 04:39:54;;;;;;;;;4.67;4.67;;;;;13.57;100.00;100737.63;4975821;28;45448;-75
2023/10/23 04:42:19;;;;;;;;;6.33;5.00;;;;;13.56;100.00;100739.41;4976194;28;45290;-76
2023/10/23 04:44:48;;;;;;;;;5.67;4.00;;;;;13.57;100.00;100732.31;4975862;28;45521;-74
2023/10/23 04:47:13;;;;;;;;;5.00;5.00;;;;;13.55;100.00;100720.84;4975957;28;46716;-74
2023/10/23 04:49:39;;;;;;;;;7.00;5.00;;;;;13.57;100.00;100730.53;4975364;28;57472;-75
2023/10/23 04:52:04;;;;;;;;;6.67;6.67;;;;;13.57;100.00;100721.72;4975842;28;45368;-73
2023/10/23 04:54:30;;;;;;;;;4.00;4.00;;;;;13.50;100.00;100712.91;4976016;28;45452;-75
2023/10/23 04:56:55;;;;;;;;;11.00;4.00;;;;;13.48;100.00;100724.41;4975897;28;45495;-76
2023/10/23 04:59:20;;;;;;;;;3.00;3.00;;;;;13.50;100.00;100722.63;4975812;28;45191;-74
2023/10/23 05:01:46;;;;;;;;;10.33;4.67;;;;;13.52;100.00;100720.84;4983435;28;45238;-75
2023/10/23 05:04:11;;;;;;;;;4.00;4.00;;;;;13.53;100.00;100710.25;4975586;28;45430;-75
2023/10/23 05:06:37;;;;;;;;;6.33;5.00;;;;;13.50;100.00;100710.25;4975360;28;46507;-75
2023/10/23 05:09:04;;;;;;;;;6.33;3.00;;;;;13.48;100.00;100704.06;5060173;28;45489;-75
2023/10/23 05:11:30;;;;;;;;;5.00;5.00;;;;;13.49;100.00;100689.03;4975675;28;45504;-75
2023/10/23 05:13:55;;;;;;;;;7.67;5.00;;;;;13.50;100.00;100694.31;4975290;28;45492;-75
2023/10/23 05:16:20;;;;;;;;;7.00;5.67;;;;;13.51;100.00;100687.25;4994754;28;46663;-75
2023/10/23 05:18:46;;;;;;;;;10.33;5.00;;;;;13.52;100.00;100681.03;5015654;28;45487;-74
2023/10/23 05:21:12;;;;;;;;;4.33;4.33;;;;;13.52;100.00;100681.03;5004636;28;45498;-74
2023/10/23 05:23:41;;;;;;;;;6.33;6.33;;;;;13.54;100.00;100677.53;5015404;28;45455;-75
2023/10/23 05:26:10;;;;;;;;;8.00;4.00;;;;;13.54;100.00;100677.53;5015654;28;47468;-75
2023/10/23 05:28:38;;;;;;;;;4.00;3.00;;;;;13.54;100.00;100674.88;5006313;28;45691;-74
2023/10/23 05:31:03;;;;;;;;;6.33;6.33;;;;;13.52;100.00;100670.44;5047640;28;45316;-74
2023/10/23 05:33:28;;;;;;;;;7.00;4.00;;;;;13.49;100.00;100666.03;4981437;28;45543;-74
2023/10/23 05:36:01;;;;;;;;;6.00;3.67;;;;;13.54;100.00;100672.22;4978520;28;52275;-74
2023/10/23 05:38:27;;;;;;;;;3.00;3.00;;;;;13.54;100.00;100666.03;4974821;28;45480;-75
2023/10/23 05:40:56;;;;;;;;;4.00;4.00;;;;;13.53;100.00;100662.50;4977546;28;45343;-76
2023/10/23 05:43:22;;;;;;;;;4.00;4.00;;;;;13.53;100.00;100648.31;4974735;28;45259;-74
2023/10/23 05:45:47;;;;;;;;;5.67;4.00;;;;;13.53;100.00;100662.50;4974880;28;45729;-75
2023/10/23 05:48:12;;;;;;;;;6.33;3.33;;;;;13.54;100.00;100653.66;4975095;28;45460;-76
2023/10/23 05:50:38;;;;;;;;;4.00;4.00;;;;;13.54;100.00;100652.75;5059181;28;45294;-76
2023/10/23 05:53:03;;;;;;;;;3.67;3.00;;;;;13.56;100.00;100643.03;4975107;28;51356;-76
2023/10/23 05:55:28;;;;;;;;;3.00;3.00;;;;;13.53;100.00;100637.72;5042000;28;48201;-74
2023/10/23 05:57:55;;;;;;;;;3.33;2.67;;;;;13.53;100.00;100645.66;5006028;28;58188;-74
2023/10/23 06:00:20;;;;;;;;;3.33;2.00;;;;;13.51;100.00;100639.50;4997729;28;45512;-73
2023/10/23 06:02:46;;;;;;;;;4.00;2.67;;;;;13.50;100.00;100637.75;4974979;28;45545;-73
2023/10/23 06:05:11;;;;;;;;;3.00;2.67;;;;;13.49;100.00;100634.22;4982194;28;45644;-75
2023/10/23 06:07:36;;;;;;;;;3.00;3.00;;;;;13.48;100.00;100632.44;4987971;28;45378;-72
2023/10/23 06:10:03;;;;;;;;;3.67;2.00;;;;;13.51;100.00;100632.41;4969449;28;53620;-72
2023/10/23 06:12:29;;;;;;;;;8.00;2.33;;;;;13.45;100.00;100632.44;4972904;28;46120;-73
2023/10/23 06:14:54;;;;;;;;;4.33;3.00;;;;;13.41;100.00;100641.31;5035285;28;46259;-73
2023/10/23 06:17:20;;;;;;;;;4.67;3.00;;;;;13.32;100.00;100630.75;4983261;28;49129;-72
2023/10/23 06:19:45;;;;;;;;;4.00;4.00;;;;;13.26;100.00;100626.34;4978149;28;45612;-71
2023/10/23 06:22:11;;;;;;;;;6.00;4.00;;;;;13.18;100.00;100627.22;4971594;28;45483;-72
2023/10/23 06:24:36;;;;;;;;;4.00;4.00;;;;;13.13;100.00;100618.38;4981737;28;54643;-73
2023/10/23 06:29:57;;;;;;;;;6.33;3.00;;;;;13.02;100.00;100621.94;3709217;22;45683;-67
2023/10/23 06:32:22;;;;;;;;;3.00;3.00;;;;;13.05;100.00;100621.06;4975561;28;45261;-67
2023/10/23 06:34:50;;;;;;;;;5.67;2.67;;;;;13.03;100.00;100623.72;4976580;28;46796;-68
2023/10/23 06:37:16;;;;;;;;;3.33;3.33;;;;;13.09;100.00;100628.09;4966027;28;45705;-66
2023/10/23 06:39:41;;;;;;;;;7.67;3.00;;;;;13.09;100.00;100623.69;4973218;28;57647;-66
2023/10/23 06:42:06;;;;;;;;;2.00;2.00;;;;;13.14;100.00;100628.09;4971887;28;45454;-66
2023/10/23 06:44:32;;;;;;;;;5.00;4.00;;;;;13.16;100.00;100624.56;4972168;28;46201;-66
2023/10/23 06:46:57;;;;;;;;;5.00;4.00;;;;;13.19;100.00;100621.03;4973304;28;66893;-66
2023/10/23 06:49:22;;;;;;;;;5.00;3.00;;;;;13.22;100.00;100621.06;4974006;28;62444;-66
2023/10/23 06:51:48;;;;;;;;;5.00;3.33;;;;;13.18;100.00;100614.84;4969981;28;45647;-67
2023/10/23 06:54:13;;;;;;;;;7.67;3.67;;;;;13.22;100.00;100619.28;4974259;28;67794;-66
2023/10/23 06:56:38;;;;;;;;;4.00;2.67;;;;;13.23;100.00;100615.75;4974297;28;66135;-65
2023/10/23 06:59:04;;;;;;;;;5.00;3.00;;;;;13.27;100.00;100611.31;4971203;28;64598;-66
2023/10/23 07:01:29;;;;;;;;;2.00;2.00;;;;;13.32;100.00;100614.84;4973672;28;46385;-66
2023/10/23 07:03:54;;;;;;;;;3.33;2.00;;;;;13.39;100.00;100615.69;4971972;28;47185;-66
2023/10/23 07:06:20;;;;;;;;;4.00;4.00;;;;;13.42;100.00;100613.00;4974534;28;45944;-67
2023/10/23 07:08:45;;;;;;;;;4.00;4.00;;;;;13.48;100.00;100615.66;4974529;28;45366;-66
2023/10/23 07:11:18;;;;;;;;;1.67;1.67;;;;;13.51;100.00;100619.16;4974893;28;60758;-66
2023/10/23 07:13:44;;;;;;;;;2.67;2.67;;;;;13.58;100.00;100612.97;4974284;28;46583;-68
2023/10/23 07:16:09;;;;;;;;;3.67;3.67;;;;;13.67;100.00;100613.78;4975162;28;65824;-69
2023/10/23 07:18:34;;;;;;;;;6.00;3.33;;;;;13.71;100.00;100607.56;4974909;28;47705;-67
2023/10/23 07:21:00;;;;;;;;;5.00;2.33;;;;;13.77;100.00;100607.53;4975069;28;57777;-69
2023/10/23 07:23:26;;;;;;;;;6.00;4.00;;;;;13.82;100.00;100614.59;4973104;28;56976;-67
2023/10/23 07:26:07;;;;;;;;;4.00;2.00;;;;;13.88;100.00;100608.34;4970770;28;46695;-66
2023/10/23 07:28:34;;;;;;;;;4.67;3.67;;;;;13.93;100.00;100608.34;4977529;28;45466;-66
2023/10/23 07:31:02;;;;;;;;;12.33;4.00;;;;;14.02;100.00;100605.63;4977296;28;45469;-67
2023/10/23 07:33:27;;;;;;;;;5.00;4.00;;;;;14.04;100.00;100610.00;4971671;28;45997;-66
2023/10/23 07:36:12;;;;;;;;;5.00;5.00;;;;;14.07;100.00;100599.38;4978248;28;63191;-66
2023/10/23 07:38:40;;;;;;;;;6.33;4.00;;;;;14.13;100.00;100578.09;4977404;28;45625;-68
2023/10/23 07:41:06;;;;;;;;;7.33;4.00;;;;;14.19;100.00;100584.25;4979011;28;45481;-67
2023/10/23 07:43:31;;;;;;;;;5.67;3.00;;;;;14.24;100.00;100583.31;4978212;28;45520;-67
2023/10/23 07:45:57;;;;;;;;;5.67;3.67;;;;;14.29;100.00;100577.97;4978920;28;45412;-68
2023/10/23 07:48:23;;;;;;;;;4.67;4.33;;;;;14.31;100.00;100576.19;4978866;28;45341;-69
2023/10/23 07:50:49;;;;;;;;;3.00;3.00;;;;;14.38;100.00;100569.91;4981161;28;45399;-67
2023/10/23 07:53:14;;;;;;;;;8.67;3.00;;;;;14.42;100.00;100571.66;4977398;28;45561;-67
2023/10/23 07:55:40;;;;;;;;;7.00;5.00;;;;;14.48;100.00;100565.44;4974529;28;65600;-68
2023/10/23 07:58:05;;;;;;;;;6.67;4.00;;;;;14.47;100.00;100559.25;4974227;28;45800;-67
2023/10/23 08:00:30;;;;;;;;;4.00;4.00;;;;;14.55;100.00;100565.38;4970163;28;58258;-67
2023/10/23 08:02:56;;;;;;;;;7.67;7.67;;;;;14.60;100.00;100555.59;4972644;28;68610;-66
2023/10/23 08:05:22;;;;;;;;;6.00;5.00;;;;;14.61;100.00;100552.03;4977417;28;45513;-66
2023/10/23 08:07:47;;;;;;;;;5.00;4.33;;;;;14.67;100.00;100545.78;4976251;28;46580;-68
2023/10/23 08:10:13;;;;;;;;;7.67;5.00;;;;;14.72;100.00;100553.69;4975878;28;45709;-67
2023/10/23 08:12:39;;;;;;;;;9.00;5.67;;;;;14.73;100.00;100542.16;4977715;28;46695;-66
2023/10/23 08:15:04;;;;;;;;;5.00;5.00;;;;;14.79;100.00;100544.75;4976269;28;45604;-66
2023/10/23 08:17:30;;;;;;;;;6.33;3.00;;;;;14.82;100.00;100537.63;4960007;28;45851;-68
2023/10/23 08:19:55;;;;;;;;;5.00;3.00;;;;;14.86;100.00;100534.06;4974825;28;45502;-66
2023/10/23 08:22:20;;;;;;;;;5.67;3.67;;;;;14.89;100.00;100539.31;4976578;28;65587;-65
2023/10/23 08:24:46;;;;;;;;;6.00;4.00;;;;;14.87;100.00;100530.50;4977127;28;46847;-67
2023/10/23 08:27:11;;;;;;;;;7.33;2.67;;;;;14.89;100.00;100520.72;4976196;28;65062;-66
2023/10/23 08:29:36;;;;;;;;;7.67;4.00;;;;;14.93;100.00;100529.53;4974742;28;59563;-66
2023/10/23 08:32:03;;;;;;;;;4.67;3.00;;;;;14.98;100.00;100534.81;4990789;28;68887;-68
2023/10/23 08:34:28;;;;;;;;;4.00;3.00;;;;;15.02;100.00;100537.41;4975624;28;45341;-67
2023/10/23 08:36:54;;;;;;;;;6.67;4.00;;;;;15.01;100.00;100529.44;4970655;28;45588;-69
2023/10/23 08:39:19;;;;;;;;;5.00;3.00;;;;;15.05;100.00;100534.69;4963441;28;45565;-68
2023/10/23 08:41:45;;;;;;;;;4.00;4.00;;;;;15.08;100.00;100528.50;4974186;28;46029;-68
2023/10/23 08:44:11;;;;;;;;;4.00;4.00;;;;;15.15;100.00;100527.50;4967900;28;45744;-68
2023/10/23 08:46:37;;;;;;;;;4.00;4.00;;;;;15.20;100.00;100523.88;4965693;28;45464;-69
2023/10/23 08:49:03;;;;;;;;;3.00;3.00;;;;;15.25;100.00;100517.63;4968332;28;45505;-66
2023/10/23 08:51:29;;;;;;;;;4.67;4.00;;;;;15.26;100.00;100524.69;4971128;28;46332;-69
2023/10/23 08:54:04;;;;;;;;;4.00;3.00;;;;;15.30;100.00;100527.31;4964539;28;45478;-69
2023/10/23 08:56:32;;;;;;;;;5.00;4.00;;;;;15.34;100.00;100514.81;4979246;28;45794;-67
2023/10/23 08:58:59;;;;;;;;;5.33;4.00;;;;;15.37;100.00;100512.13;4981526;28;45517;-68
2023/10/23 09:01:24;;;;;;;;;3.67;3.67;;;;;15.36;100.00;100500.63;4967159;28;47364;-69
2023/10/23 09:03:50;;;;;;;;;6.67;4.00;;;;;15.36;100.00;100497.97;4958698;28;46128;-67
2023/10/23 09:06:18;;;;;;;;;6.00;4.00;;;;;15.39;100.00;100494.34;4975612;28;61409;-68
2023/10/23 09:08:45;;;;;;;;;5.00;5.00;;;;;15.36;100.00;100482.00;4976213;28;59767;-66
2023/10/23 09:11:10;;;;;;;;;4.00;4.00;;;;;15.32;100.00;100474.06;4976965;28;45893;-66
2023/10/23 09:13:38;;;;;;;;;3.00;3.00;;;;;15.32;100.00;100461.66;4971722;28;45486;-67
2023/10/23 09:16:10;;;;;;;;;4.00;4.00;;;;;15.31;100.00;100462.56;4975744;28;45352;-69
2023/10/23 09:18:51;;;;;;;;;7.00;4.00;;;;;15.29;100.00;100459.06;4975191;28;45485;-69
2023/10/23 09:21:17;;;;;;;;;5.33;5.33;;;;;15.24;100.00;100454.69;4974287;28;45852;-67
2023/10/23 09:23:58;;;;;;;;;3.00;3.00;;;;;15.24;100.00;100455.56;4976043;28;45490;-68
2023/10/23 09:26:24;;;;;;;;;6.67;6.00;;;;;15.28;100.00;100454.59;4973896;28;45439;-67
2023/10/23 09:28:52;;;;;;;;;4.00;4.00;;;;;15.29;100.00;100451.06;4974868;28;45471;-69
2023/10/23 09:31:17;;;;;;;;;3.00;3.00;;;;;15.31;100.00;100453.69;4961442;28;45801;-65
2023/10/23 09:33:47;;;;;;;;;4.00;4.00;;;;;15.33;100.00;100446.56;4937911;28;45781;-69
2023/10/23 09:36:14;;;;;;;;;6.67;3.00;;;;;15.34;100.00;100450.97;4939890;28;45867;-66
2023/10/23 09:38:41;;;;;;;;;4.00;4.00;;;;;15.39;100.00;100450.03;4936044;28;45486;-67
2023/10/23 09:41:11;;;;;;;;;2.33;2.33;;;;;15.42;100.00;100441.13;4956377;28;46751;-68
2023/10/23 09:43:47;;;;;;;;;5.00;4.00;;;;;15.44;100.00;100449.94;4953959;28;45804;-66
2023/10/23 09:46:13;;;;;;;;;9.67;5.00;;;;;15.43;100.00;100449.06;4938846;28;45543;-67
2023/10/23 09:48:40;;;;;;;;;7.67;3.00;;;;;15.48;100.00;100445.47;4939382;28;45514;-65
2023/10/23 09:51:05;;;;;;;;;2.00;2.00;;;;;15.52;100.00;100448.06;4955207;28;45553;-67
2023/10/23 09:53:31;;;;;;;;;4.00;3.33;;;;;15.56;100.00;100443.56;4939096;28;45492;-65
2023/10/23 09:55:58;;;;;;;;;4.00;2.00;;;;;15.59;100.00;100446.16;4953603;28;45518;-66
2023/10/23 09:58:26;;;;;;;;;5.33;4.00;;;;;15.61;100.00;100431.09;4936620;28;45483;-65
2023/10/23 10:00:52;;;;;;;;;3.67;3.67;;;;;15.64;100.00;100425.72;4941086;28;65518;-66
2023/10/23 10:03:19;;;;;;;;;4.00;4.00;;;;;15.66;100.00;100424.81;4954883;28;49457;-66
2023/10/23 10:05:50;;;;;;;;;4.67;3.67;;;;;15.74;100.00;100426.47;4954154;28;45506;-67
2023/10/23 10:08:18;;;;;;;;;3.33;3.33;;;;;15.81;100.00;100414.78;4939406;28;45517;-66
2023/10/23 10:10:43;;;;;;;;;5.00;5.00;;;;;15.81;100.00;100413.00;4954030;28;45825;-68
2023/10/23 10:13:11;;;;;;;;;6.00;4.00;;;;;15.83;100.00;100405.00;4938289;28;45870;-67
2023/10/23 10:15:38;;;;;;;;;6.67;4.33;;;;;15.88;100.00;100403.16;4939578;28;45264;-67
2023/10/23 10:18:03;;;;;;;;;6.00;4.67;;;;;15.97;100.00;100402.97;4938580;28;45471;-69
2023/10/23 10:20:29;;;;;;;;;3.33;3.00;;;;;16.01;100.00;100403.78;4957826;28;57830;-67
2023/10/23 10:23:04;;;;;;;;;5.00;4.00;;;;;16.10;100.00;100406.28;4938412;28;63489;-67
2023/10/23 10:25:30;;;;;;;;;5.00;5.00;;;;;16.12;100.00;100396.47;4956385;28;45475;-66
2023/10/23 10:28:03;;;;;;;;;5.00;3.00;;;;;16.13;100.00;100396.44;4938198;28;45856;-67
2023/10/23 10:30:43;;;;;;;;;5.33;4.00;;;;;16.20;100.00;100398.09;4959318;28;48213;-67
2023/10/23 10:33:31;;;;;;;;;5.00;4.00;;;;;16.26;100.00;100389.13;4975280;28;45574;-67
2023/10/23 10:36:00;;;;;;;;;7.33;5.00;;;;;16.30;100.00;100385.50;4990177;28;45502;-69
2023/10/23 10:38:27;;;;;;;;;6.67;4.00;;;;;16.29;100.00;100373.06;4973722;28;45795;-67
2023/10/23 10:40:59;;;;;;;;;6.67;5.00;;;;;16.26;100.00;100378.47;4968516;28;46467;-68
2023/10/23 10:43:25;;;;;;;;;8.67;3.67;;;;;16.27;100.00;100384.66;4987227;28;45545;-69
2023/10/23 10:45:51;;;;;;;;;4.67;4.67;;;;;16.27;100.00;100379.34;4975754;28;45491;-67
2023/10/23 10:48:17;;;;;;;;;6.33;5.00;;;;;16.28;100.00;100391.75;4975815;28;45532;-66
2023/10/23 10:50:42;;;;;;;;;4.00;4.00;;;;;16.23;100.00;100383.84;4980450;28;45545;-67
2023/10/23 10:53:13;;;;;;;;;5.00;3.00;;;;;16.27;100.00;100384.66;4976250;28;45464;-67
2023/10/23 10:55:38;;;;;;;;;5.67;4.00;;;;;16.26;100.00;100382.91;4975334;28;45514;-66
2023/10/23 10:58:04;;;;;;;;;8.00;4.00;;;;;16.30;100.00;100385.50;4974224;28;58491;-67
2023/10/23 11:00:31;;;;;;;;;4.67;3.00;;;;;16.28;100.00;100375.75;4976122;28;46838;-67
2023/10/23 11:02:56;;;;;;;;;4.67;3.67;;;;;16.25;100.00;100371.38;4975275;28;45529;-67
2023/10/23 11:05:22;;;;;;;;;3.67;3.67;;;;;16.21;100.00;100370.56;4976459;28;45511;-67
2023/10/23 11:07:49;;;;;;;;;5.33;5.00;;;;;16.19;100.00;100364.38;4973651;28;61548;-67
2023/10/23 11:10:15;;;;;;;;;4.00;3.00;;;;;16.19;100.00;100356.41;4972513;28;46597;-66